Time;durP1;ratioP1;P1;durP2;ratioP2;P2;SDS_P1;SDS_P2;PMS_P1;PMS_P2;Temp;Humidity;BMP_temperature;BMP_pressure;BME280_temperature;BME280_humidity;BME280_pressure;Samples;Min_cycle;Max_cycle;Signal;HPM_P1;HPM_P2
2022/01/03 00:00:47;;;;;;;317.90;144.07;;;;;;;5.63;67.16;95387.34;4887187;29;20031;-79
2022/01/03 00:03:14;;;;;;;288.25;138.93;;;;;;;5.67;67.27;95383.41;4918988;29;20040;-79
2022/01/03 00:05:39;;;;;;;216.23;109.18;;;;;;;5.65;67.38;95380.22;4887313;29;20032;-78
2022/01/03 00:08:05;;;;;;;234.38;117.38;;;;;;;5.60;66.46;95374.84;4919928;29;20154;-79
2022/01/03 00:10:33;;;;;;;232.35;110.32;;;;;;;5.57;66.92;95380.38;4902886;29;20040;-79
2022/01/03 00:12:58;;;;;;;253.50;106.90;;;;;;;5.61;66.93;95363.53;4963635;23;20149;-79
2022/01/03 00:15:26;;;;;;;190.45;96.35;;;;;;;5.62;66.94;95365.13;4939344;29;20500;-79
2022/01/03 00:17:53;;;;;;;230.82;116.45;;;;;;;5.58;67.09;95361.34;4921220;29;20024;-79
2022/01/03 00:20:19;;;;;;;205.82;108.93;;;;;;;5.50;67.83;95348.56;4920888;29;20070;-78
2022/01/03 00:23:00;;;;;;;195.57;103.57;;;;;;;5.54;67.89;95345.44;4938309;29;20039;-79
2022/01/03 00:25:26;;;;;;;183.38;89.05;;;;;;;5.63;69.27;95340.91;4905279;29;20059;-79
2022/01/03 00:28:15;;;;;;;134.60;65.47;;;;;;;5.66;70.01;95341.34;4905254;29;20046;-79
2022/01/03 00:31:06;;;;;;;179.18;91.05;;;;;;;5.68;67.41;95341.16;4924473;29;20043;-79
2022/01/03 00:36:16;;;;;;;171.70;85.50;;;;;;;5.66;67.99;95340.53;4994338;23;20047;-78
2022/01/03 00:39:02;;;;;;;171.20;83.88;;;;;;;5.57;67.36;95344.25;4904914;29;20397;-79
2022/01/03 00:41:27;;;;;;;184.75;91.68;;;;;;;5.49;68.14;95359.84;4923058;29;20087;-79
2022/01/03 00:43:53;;;;;;;183.38;92.75;;;;;;;5.42;67.97;95350.28;4939340;29;20031;-79
2022/01/03 00:46:19;;;;;;;161.23;83.30;;;;;;;5.47;67.92;95357.47;4921056;29;20050;-79
2022/01/03 00:48:44;;;;;;;144.23;68.47;;;;;;;5.43;67.09;95361.41;4905404;29;20035;-79
2022/01/03 00:51:13;;;;;;;145.10;80.75;;;;;;;5.34;67.12;95368.47;4906075;29;20039;-80
2022/01/03 00:53:42;;;;;;;115.22;66.75;;;;;;;5.39;69.33;95357.63;4921363;29;20489;-80
2022/01/03 00:56:33;;;;;;;140.30;80.78;;;;;;;5.41;68.42;95347.91;4906138;29;20028;-80
2022/01/03 00:59:10;;;;;;;119.90;65.20;;;;;;;5.43;68.91;95349.31;4937855;29;20055;-79
2022/01/03 01:01:43;;;;;;;130.50;71.85;;;;;;;5.45;68.37;95338.81;4922629;29;20035;-79
2022/01/03 01:04:08;;;;;;;122.50;67.30;;;;;;;5.44;69.39;95332.06;4921672;29;20123;-80
2022/01/03 01:06:35;;;;;;;130.02;66.00;;;;;;;5.42;69.29;95324.50;4937710;29;20031;-80
2022/01/03 01:09:00;;;;;;;131.13;67.88;;;;;;;5.39;68.90;95324.09;4939208;29;20031;-80
2022/01/03 01:11:29;;;;;;;133.23;66.13;;;;;;;5.48;69.59;95322.16;4924109;29;20046;-80
2022/01/03 01:13:55;;;;;;;135.15;71.50;;;;;;;5.43;68.62;95313.19;4939392;29;20667;-79
2022/01/03 01:16:21;;;;;;;137.55;72.57;;;;;;;5.43;67.53;95308.03;4940670;29;20043;-79
2022/01/03 01:18:46;;;;;;;126.50;63.00;;;;;;;5.41;69.00;95304.84;4925461;29;20031;-80
2022/01/03 01:21:12;;;;;;;127.22;66.55;;;;;;;5.44;67.54;95298.53;4925557;29;20039;-80
2022/01/03 01:23:40;;;;;;;113.82;62.60;;;;;;;5.38;67.70;95312.19;4909617;29;20031;-79
2022/01/03 01:28:50;;;;;;;115.25;59.50;;;;;;;5.32;68.41;95310.31;4941703;29;20034;-79
2022/01/03 01:31:20;;;;;;;117.20;61.55;;;;;;;5.34;68.09;95305.78;4946899;29;20039;-80
2022/01/03 01:33:45;;;;;;;117.90;62.60;;;;;;;5.22;67.79;95297.78;4940175;29;20032;-79
2022/01/03 01:36:11;;;;;;;109.90;55.65;;;;;;;5.23;67.52;95294.22;4907775;29;20381;-80
2022/01/03 01:38:40;;;;;;;106.10;53.53;;;;;;;5.24;68.71;95306.13;4907990;29;20114;-79
2022/01/03 01:41:07;;;;;;;105.47;56.35;;;;;;;5.23;68.99;95309.69;4914064;29;20055;-80
2022/01/03 01:43:42;;;;;;;123.50;67.18;;;;;;;5.21;67.49;95306.50;4927036;29;20032;-80
2022/01/03 01:46:15;;;;;;;105.22;57.38;;;;;;;5.12;68.58;95297.28;4916513;29;20040;-79
2022/01/03 01:48:44;;;;;;;67.75;36.90;;;;;;;5.19;69.54;95292.97;4918079;29;20134;-80
2022/01/03 01:51:10;;;;;;;58.58;35.10;;;;;;;5.24;69.63;95295.00;4929153;29;20059;-79
2022/01/03 01:53:43;;;;;;;51.13;29.25;;;;;;;5.30;69.66;95300.22;4926710;29;20433;-80
2022/01/03 01:56:19;;;;;;;51.17;27.90;;;;;;;5.31;70.56;95301.78;4939142;29;20036;-80
2022/01/03 01:59:19;;;;;;;72.55;38.03;;;;;;;5.34;68.83;95298.03;4889879;29;20047;-80
2022/01/03 02:01:54;;;;;;;71.18;37.22;;;;;;;5.27;68.30;95290.28;4921365;29;20044;-80
2022/01/03 02:04:47;;;;;;;80.03;43.28;;;;;;;5.30;67.94;95286.50;4937308;29;20035;-80
2022/01/03 02:07:50;;;;;;;76.82;41.15;;;;;;;5.25;67.52;95275.97;4939439;29;20032;-80
2022/01/03 02:10:16;;;;;;;74.97;43.80;;;;;;;5.23;68.26;95265.06;4937951;29;20039;-80
2022/01/03 02:12:46;;;;;;;63.90;37.33;;;;;;;5.25;68.94;95266.47;4907694;29;20044;-80
2022/01/03 02:15:16;;;;;;;67.07;35.78;;;;;;;5.28;68.64;95260.13;4904969;29;20035;-79
2022/01/03 02:17:47;;;;;;;67.35;35.92;;;;;;;5.29;68.22;95247.03;4936618;29;20555;-79
2022/01/03 02:20:14;;;;;;;72.57;40.08;;;;;;;5.34;68.17;95243.88;4903822;29;20111;-80
2022/01/03 02:22:40;;;;;;;86.45;40.08;;;;;;;5.33;68.24;95247.47;4941210;23;20040;-79
2022/01/03 02:25:07;;;;;;;83.00;46.17;;;;;;;5.41;68.30;95244.75;4937167;29;20056;-79
2022/01/03 02:27:32;;;;;;;74.00;41.75;;;;;;;5.37;68.18;95233.22;4940178;29;20524;-80
2022/01/03 02:29:58;;;;;;;68.60;39.72;;;;;;;5.39;68.22;95236.41;4923309;29;20043;-79
2022/01/03 02:32:26;;;;;;;77.28;41.65;;;;;;;5.38;68.44;95240.78;4932231;29;20472;-79
2022/01/03 02:34:52;;;;;;;77.35;44.20;;;;;;;5.41;68.55;95235.22;4933427;29;20063;-78
2022/01/03 02:37:17;;;;;;;81.82;43.25;;;;;;;5.32;68.53;95236.34;4954132;29;20046;-78
2022/01/03 02:39:43;;;;;;;62.50;38.22;;;;;;;5.39;67.47;95239.78;4938530;29;20518;-79
2022/01/03 02:42:11;;;;;;;58.35;33.00;;;;;;;5.40;67.30;95243.94;4922170;29;20125;-78
2022/01/03 02:44:36;;;;;;;61.88;34.28;;;;;;;5.41;67.48;95245.53;4948983;29;20035;-78
2022/01/03 02:47:10;;;;;;;70.47;38.08;;;;;;;5.41;67.44;95247.31;4937067;29;20055;-78
2022/01/03 02:49:35;;;;;;;65.97;35.78;;;;;;;5.32;67.36;95243.28;4952304;29;20044;-80
2022/01/03 02:52:01;;;;;;;69.10;36.92;;;;;;;5.22;67.36;95241.06;4947144;29;20058;-78
2022/01/03 02:54:26;;;;;;;71.47;39.05;;;;;;;5.19;67.46;95238.81;4950952;29;20408;-79
2022/01/03 02:56:52;;;;;;;74.65;45.85;;;;;;;5.21;67.36;95239.47;4952270;29;20042;-78
2022/01/03 02:59:19;;;;;;;79.93;43.95;;;;;;;5.29;67.23;95231.56;4925287;29;20035;-79
2022/01/03 03:01:44;;;;;;;71.22;40.67;;;;;;;5.33;68.50;95232.78;4914420;29;20035;-78
2022/01/03 03:04:10;;;;;;;82.18;43.63;;;;;;;5.36;69.02;95219.50;4943167;29;21020;-80
2022/01/03 03:06:39;;;;;;;74.07;42.10;;;;;;;5.27;68.11;95220.66;4907686;29;20177;-80
2022/01/03 03:09:06;;;;;;;71.47;38.67;;;;;;;5.23;68.25;95211.72;4921580;29;20036;-79
2022/01/03 03:11:35;;;;;;;72.22;41.05;;;;;;;5.26;68.56;95206.16;4923584;29;20035;-80
2022/01/03 03:14:01;;;;;;;73.18;41.67;;;;;;;5.33;68.80;95225.03;4939163;29;20031;-79
2022/01/03 03:16:27;;;;;;;90.32;49.42;;;;;;;5.30;68.30;95217.69;4938944;29;20039;-80
2022/01/03 03:18:52;;;;;;;87.28;52.35;;;;;;;5.33;67.39;95217.31;4906264;29;20027;-79
2022/01/03 03:21:18;;;;;;;96.05;53.28;;;;;;;5.40;67.27;95210.44;4921307;29;20038;-79
2022/01/03 03:23:43;;;;;;;90.50;49.30;;;;;;;5.40;67.91;95228.47;4938175;29;20036;-79
2022/01/03 03:26:10;;;;;;;106.18;51.17;;;;;;;5.47;68.27;95225.13;4938074;29;20050;-79
2022/01/03 03:28:35;;;;;;;100.35;61.78;;;;;;;5.47;66.95;95223.34;4918715;29;20043;-78
2022/01/03 03:31:01;;;;;;;125.63;67.35;;;;;;;5.45;67.11;95224.53;4938108;29;20028;-78
2022/01/03 03:33:29;;;;;;;113.82;65.20;;;;;;;5.43;67.02;95212.63;4937622;29;20039;-79
2022/01/03 03:36:00;;;;;;;127.25;81.93;;;;;;;5.38;67.82;95216.75;4936240;29;20030;-79
2022/01/03 03:38:30;;;;;;;137.85;76.85;;;;;;;5.36;68.08;95210.97;4938213;29;20043;-79
2022/01/03 03:40:56;;;;;;;128.82;81.53;;;;;;;5.39;68.27;95205.47;4920948;29;20034;-80
2022/01/03 03:43:22;;;;;;;133.55;84.18;;;;;;;5.40;68.34;95218.16;4919010;29;20484;-79
2022/01/03 03:45:50;;;;;;;133.18;83.18;;;;;;;5.44;67.84;95213.41;4935758;29;20039;-80
2022/01/03 03:48:17;;;;;;;147.15;94.10;;;;;;;5.39;67.13;95211.41;4917657;29;20044;-79
2022/01/03 03:50:42;;;;;;;149.93;94.22;;;;;;;5.47;67.53;95209.66;4937428;29;20130;-79
2022/01/03 03:53:08;;;;;;;121.75;75.80;;;;;;;5.42;67.47;95213.59;4935744;29;20035;-80
2022/01/03 03:55:33;;;;;;;136.25;82.95;;;;;;;5.46;67.41;95211.44;4919717;29;20099;-80
2022/01/03 03:58:00;;;;;;;135.60;84.60;;;;;;;5.47;66.18;95205.28;4920986;29;20036;-79
2022/01/03 04:00:25;;;;;;;137.45;83.75;;;;;;;5.41;67.45;95208.66;4926211;29;20122;-79
2022/01/03 04:02:51;;;;;;;140.15;83.47;;;;;;;5.33;67.34;95211.34;4925743;29;20122;-80
2022/01/03 04:05:16;;;;;;;145.88;90.72;;;;;;;5.26;66.64;95205.38;4906614;29;20107;-79
2022/01/03 04:07:42;;;;;;;132.65;85.30;;;;;;;5.27;66.70;95202.59;4935609;29;20031;-79
2022/01/03 04:10:08;;;;;;;118.15;74.53;;;;;;;5.27;67.70;95196.66;4945365;29;20043;-79
2022/01/03 04:12:34;;;;;;;118.97;75.40;;;;;;;5.22;66.53;95211.91;4940598;29;20028;-80
2022/01/03 04:14:59;;;;;;;114.60;73.40;;;;;;;5.17;66.57;95211.66;4924645;23;20047;-79
2022/01/03 04:17:24;;;;;;;123.03;80.05;;;;;;;5.09;66.71;95210.81;4941216;29;20043;-79
2022/01/03 04:19:50;;;;;;;75.47;41.85;;;;;;;5.03;67.76;95216.69;4931665;29;20035;-80
2022/01/03 04:22:15;;;;;;;113.70;65.78;;;;;;;5.02;68.39;95206.59;4915697;29;20044;-80
2022/01/03 04:24:41;;;;;;;106.20;67.90;;;;;;;5.05;67.56;95211.38;4918570;29;20471;-80
2022/01/03 04:27:06;;;;;;;80.88;52.05;;;;;;;5.13;69.47;95217.19;4949818;29;20094;-80
2022/01/03 04:29:34;;;;;;;100.50;59.55;;;;;;;5.17;69.99;95209.88;4914418;29;20038;-79
2022/01/03 04:32:00;;;;;;;94.45;57.40;;;;;;;5.14;69.60;95192.19;4930077;29;20027;-80
2022/01/03 04:34:25;;;;;;;107.25;70.47;;;;;;;5.20;69.22;95201.75;4914927;29;20039;-80
2022/01/03 04:36:51;;;;;;;91.85;57.92;;;;;;;5.23;69.08;95198.81;4949788;29;20031;-80
2022/01/03 04:39:16;;;;;;;103.57;56.95;;;;;;;5.25;69.40;95194.28;4931508;29;20031;-79
2022/01/03 04:41:44;;;;;;;100.93;60.35;;;;;;;5.20;69.73;95201.75;4914329;29;20035;-80
2022/01/03 04:44:09;;;;;;;105.40;65.07;;;;;;;5.20;69.01;95206.91;4946430;29;20045;-79
2022/01/03 04:46:35;;;;;;;97.10;62.90;;;;;;;5.20;68.60;95206.91;4947213;29;20027;-80
2022/01/03 04:49:01;;;;;;;105.72;64.05;;;;;;;5.22;68.16;95220.44;4914708;29;20393;-80
2022/01/03 04:51:26;;;;;;;103.80;64.68;;;;;;;5.21;68.31;95221.41;4901660;29;20094;-80
2022/01/03 04:53:54;;;;;;;109.30;69.07;;;;;;;5.17;67.82;95227.91;4901452;29;20047;-80
2022/01/03 04:56:41;;;;;;;142.73;77.80;;;;;;;5.22;67.79;95235.91;4931512;29;20147;-80
2022/01/03 04:59:07;;;;;;;142.60;77.15;;;;;;;5.24;67.67;95231.34;4935339;23;20039;-80
2022/01/03 05:01:32;;;;;;;159.75;88.32;;;;;;;5.20;67.58;95230.09;4938547;29;20047;-80
2022/01/03 05:03:57;;;;;;;150.88;88.25;;;;;;;5.11;67.28;95238.97;4920830;29;20038;-79
2022/01/03 05:06:23;;;;;;;169.52;97.90;;;;;;;5.05;66.96;95230.22;4920545;29;20036;-79
2022/01/03 05:08:48;;;;;;;260.83;146.35;;;;;;;5.03;67.12;95231.38;4905593;29;20032;-79
2022/01/03 05:11:14;;;;;;;203.43;117.47;;;;;;;5.03;66.65;95226.22;4921971;29;20459;-80
2022/01/03 05:13:40;;;;;;;231.05;132.13;;;;;;;4.97;67.84;95225.19;4922093;29;20040;-79
2022/01/03 05:16:06;;;;;;;249.48;144.52;;;;;;;4.96;67.29;95225.38;4921287;29;20036;-79
2022/01/03 05:18:31;;;;;;;209.20;126.43;;;;;;;4.95;67.99;95231.53;4919351;29;20395;-79
2022/01/03 05:20:57;;;;;;;184.50;109.82;;;;;;;4.93;67.78;95229.13;4937104;29;20038;-79
2022/01/03 05:23:22;;;;;;;133.88;78.20;;;;;;;4.91;68.93;95227.72;4938429;29;20039;-80
2022/01/03 05:25:48;;;;;;;113.60;65.97;;;;;;;4.92;68.59;95224.16;4937609;29;20038;-79
2022/01/03 05:28:14;;;;;;;131.18;78.47;;;;;;;4.92;69.19;95219.00;4938024;29;20043;-80
2022/01/03 05:30:39;;;;;;;148.45;83.88;;;;;;;4.96;68.42;95220.22;4938546;29;20031;-79
2022/01/03 05:33:05;;;;;;;142.63;81.20;;;;;;;4.93;68.72;95220.59;4937064;29;20028;-79
2022/01/03 05:35:30;;;;;;;174.30;97.97;;;;;;;4.91;67.58;95207.13;4938027;29;20031;-80
2022/01/03 05:37:56;;;;;;;173.55;103.00;;;;;;;4.90;68.24;95200.38;4938062;29;20387;-79
2022/01/03 05:40:23;;;;;;;186.30;104.95;;;;;;;4.91;68.08;95199.38;4938759;29;20574;-80
2022/01/03 05:42:49;;;;;;;151.50;88.22;;;;;;;4.97;68.76;95208.94;4938297;23;20595;-79
2022/01/03 05:45:14;;;;;;;203.70;125.65;;;;;;;4.96;68.26;95220.22;4918736;29;20044;-79
2022/01/03 05:47:42;;;;;;;208.63;126.88;;;;;;;4.98;68.46;95215.69;4902951;29;20492;-80
2022/01/03 05:50:08;;;;;;;212.15;127.63;;;;;;;5.00;68.10;95216.28;4911241;29;20042;-80
2022/01/03 05:52:33;;;;;;;209.32;124.07;;;;;;;4.99;67.58;95214.69;4911688;29;20036;-79
2022/01/03 05:55:59;;;;;;;157.25;95.05;;;;;;;5.00;69.06;95209.34;4910170;29;20084;-80
2022/01/03 05:58:25;;;;;;;242.10;145.18;;;;;;;4.89;68.73;95217.63;4841102;29;20045;-80
2022/01/03 06:00:50;;;;;;;238.82;144.27;;;;;;;4.92;67.75;95217.25;4909432;29;20051;-79
2022/01/03 06:03:19;;;;;;;228.52;138.50;;;;;;;4.92;68.40;95222.38;4926654;29;20447;-79
2022/01/03 06:06:05;;;;;;;260.70;156.18;;;;;;;4.89;66.98;95220.19;4881776;29;20032;-80
2022/01/03 06:08:30;;;;;;;223.90;133.60;;;;;;;4.91;68.16;95222.56;4911764;29;20043;-80
2022/01/03 06:10:56;;;;;;;259.35;152.27;;;;;;;4.92;66.71;95229.31;4925927;29;20036;-80
2022/01/03 06:13:21;;;;;;;220.75;135.32;;;;;;;4.91;67.78;95230.31;4893762;29;20040;-80
2022/01/03 06:15:47;;;;;;;293.67;182.95;;;;;;;4.91;67.31;95232.88;4928924;29;20035;-80
2022/01/03 06:18:14;;;;;;;295.40;196.88;;;;;;;4.97;67.26;95226.97;4910858;29;20035;-80
2022/01/03 06:20:40;;;;;;;306.52;196.40;;;;;;;4.99;67.45;95232.75;4910937;29;20442;-80
2022/01/03 06:23:06;;;;;;;364.50;243.38;;;;;;;5.02;67.36;95234.94;4895215;29;20048;-80
2022/01/03 06:25:32;;;;;;;277.88;183.90;;;;;;;5.05;67.48;95229.44;4879186;29;20043;-79
2022/01/03 06:27:57;;;;;;;341.33;225.27;;;;;;;5.14;67.21;95243.75;4910062;29;20044;-80
2022/01/03 06:30:25;;;;;;;287.55;188.25;;;;;;;5.23;67.41;95247.81;4925970;29;20036;-80
2022/01/03 06:32:51;;;;;;;284.33;194.65;;;;;;;5.18;67.98;95244.97;4912993;29;20042;-79
2022/01/03 06:35:17;;;;;;;141.50;83.15;;;;;;;5.12;67.00;95236.22;4911602;29;20095;-79
2022/01/03 06:37:42;;;;;;;79.25;46.88;;;;;;;5.22;68.87;95235.09;4926270;29;20038;-79
2022/01/03 06:40:08;;;;;;;85.10;46.70;;;;;;;4.99;68.09;95230.16;4925358;29;20036;-79
2022/01/03 06:42:40;;;;;;;78.15;46.53;;;;;;;4.98;68.42;95223.41;4891954;29;20059;-80
2022/01/03 06:45:08;;;;;;;85.22;46.30;;;;;;;5.08;68.69;95234.22;4924805;29;20399;-79
2022/01/03 06:47:34;;;;;;;83.60;47.13;;;;;;;5.13;67.72;95231.84;4926561;29;20393;-80
2022/01/03 06:50:00;;;;;;;80.68;48.50;;;;;;;5.22;68.40;95238.47;4928454;29;20036;-80
2022/01/03 06:52:25;;;;;;;81.45;48.97;;;;;;;5.40;67.95;95225.91;4909010;29;20039;-80
2022/01/03 06:54:51;;;;;;;75.53;47.35;;;;;;;5.57;66.99;95230.75;4892209;29;20040;-79
2022/01/03 06:57:16;;;;;;;85.53;45.25;;;;;;;5.48;66.69;95230.09;4925027;29;20032;-80
2022/01/03 06:59:44;;;;;;;86.75;46.60;;;;;;;5.34;67.80;95249.03;4911329;29;20512;-79
2022/01/03 07:02:09;;;;;;;81.70;46.97;;;;;;;5.53;67.11;95252.72;4926454;29;20655;-79
2022/01/03 07:04:35;;;;;;;91.28;47.45;;;;;;;5.66;65.94;95242.50;4892579;29;20110;-79
2022/01/03 07:07:00;;;;;;;79.25;44.30;;;;;;;5.87;65.77;95234.69;4893453;29;20107;-80
2022/01/03 07:09:26;;;;;;;75.60;41.63;;;;;;;6.15;65.26;95224.28;4911609;29;20121;-80
2022/01/03 07:11:51;;;;;;;74.85;40.65;;;;;;;6.35;65.29;95226.16;4926428;29;20032;-79
2022/01/03 07:19:44;;;;;;;90.70;53.33;;;;;;;7.15;62.69;95220.03;4898994;29;20054;-80
2022/01/03 07:22:11;;;;;;;138.38;81.55;;;;;;;7.38;62.66;95223.00;4893733;29;20131;-80
2022/01/03 07:24:37;;;;;;;156.35;82.82;;;;;;;7.53;62.44;95209.84;4932104;29;20035;-78
2022/01/03 07:27:04;;;;;;;113.25;67.47;;;;;;;7.65;62.56;95208.22;4889125;29;20031;-80
2022/01/03 07:29:33;;;;;;;93.53;57.75;;;;;;;7.87;62.49;95200.19;4917251;29;20040;-80
2022/01/03 07:31:58;;;;;;;112.60;64.55;;;;;;;8.09;61.13;95198.88;4910207;29;20024;-80
2022/01/03 07:34:44;;;;;;;94.93;53.45;;;;;;;8.28;60.73;95187.63;4875124;24;20509;-80
2022/01/03 07:37:09;;;;;;;99.07;54.17;;;;;;;8.50;60.00;95200.31;4908512;29;20602;-79
2022/01/03 07:39:35;;;;;;;98.28;58.90;;;;;;;8.69;59.22;95200.16;4924452;29;20086;-80
2022/01/03 07:42:03;;;;;;;103.28;57.95;;;;;;;8.85;59.14;95211.81;4925381;29;20055;-80
2022/01/03 07:44:29;;;;;;;86.25;50.90;;;;;;;8.95;58.91;95209.56;4932044;29;20123;-80
2022/01/03 07:46:54;;;;;;;94.53;56.70;;;;;;;9.05;58.99;95205.69;4910434;29;20035;-80
2022/01/03 07:49:21;;;;;;;85.07;51.95;;;;;;;9.16;59.32;95205.00;4911174;29;20097;-80
2022/01/03 07:51:47;;;;;;;94.22;57.42;;;;;;;9.31;58.56;95213.25;4913725;29;20416;-79
2022/01/03 07:54:12;;;;;;;91.63;53.75;;;;;;;9.39;58.33;95209.56;4930108;29;20059;-79
2022/01/03 07:56:38;;;;;;;75.53;43.45;;;;;;;9.44;57.99;95202.75;4913623;29;20036;-80
2022/01/03 07:59:05;;;;;;;58.78;32.13;;;;;;;9.53;57.29;95204.03;4912419;29;20048;-80
2022/01/03 08:01:31;;;;;;;79.80;48.83;;;;;;;9.58;58.08;95201.59;4914209;29;20162;-81
2022/01/03 08:04:26;;;;;;;60.20;37.45;;;;;;;9.78;58.05;95203.19;4934464;29;20464;-80
2022/01/03 08:06:51;;;;;;;62.15;36.92;;;;;;;9.96;56.66;95199.81;4915413;29;20055;-80
2022/01/03 08:09:17;;;;;;;62.75;39.33;;;;;;;10.12;57.15;95209.59;4914263;29;20040;-80
2022/01/03 08:11:42;;;;;;;55.25;30.67;;;;;;;10.31;56.62;95207.78;4932157;29;20468;-80
2022/01/03 08:14:08;;;;;;;45.35;28.27;;;;;;;10.48;56.13;95208.75;4911581;29;20046;-80
2022/01/03 08:16:33;;;;;;;45.65;28.10;;;;;;;10.65;56.11;95207.09;4921700;23;20050;-79
2022/01/03 08:18:59;;;;;;;40.83;26.15;;;;;;;10.81;54.82;95208.28;4939009;29;20042;-79
2022/01/03 08:21:24;;;;;;;45.42;26.20;;;;;;;10.96;54.33;95207.84;4937111;29;20024;-80
2022/01/03 08:23:51;;;;;;;43.10;26.30;;;;;;;11.05;53.90;95203.91;4921156;29;20067;-80
2022/01/03 08:26:16;;;;;;;42.22;26.13;;;;;;;11.14;54.40;95202.56;4938751;29;20114;-79
2022/01/03 08:28:41;;;;;;;40.40;25.95;;;;;;;11.31;53.79;95211.28;4936376;29;20516;-80
2022/01/03 08:31:07;;;;;;;46.22;26.65;;;;;;;11.43;53.42;95196.47;4939718;29;20153;-80
2022/01/03 08:33:33;;;;;;;36.42;24.30;;;;;;;11.61;52.78;95190.31;4905047;29;20039;-79
2022/01/03 08:35:59;;;;;;;42.78;23.95;;;;;;;11.78;52.58;95195.63;4921971;29;20042;-79
2022/01/03 08:38:28;;;;;;;34.80;21.25;;;;;;;11.92;51.33;95193.59;4921975;29;20040;-83
2022/01/03 08:40:53;;;;;;;31.98;22.30;;;;;;;12.04;51.67;95189.16;4920691;29;20035;-80
2022/01/03 08:43:19;;;;;;;41.65;23.52;;;;;;;12.19;52.28;95179.00;4937864;29;20050;-79
2022/01/03 08:45:44;;;;;;;41.83;21.55;;;;;;;12.26;51.54;95164.00;4939729;29;20031;-79
2022/01/03 08:48:10;;;;;;;33.05;18.75;;;;;;;12.30;50.88;95164.34;4940274;29;20388;-80
2022/01/03 08:50:35;;;;;;;30.10;18.38;;;;;;;12.28;50.37;95158.56;4937844;29;20047;-80
2022/01/03 08:53:01;;;;;;;28.58;19.55;;;;;;;12.28;50.63;95150.75;4925828;23;20040;-78
2022/01/03 08:55:27;;;;;;;27.15;17.77;;;;;;;12.31;50.43;95156.28;4919831;29;20075;-79
2022/01/03 08:57:52;;;;;;;23.60;17.13;;;;;;;12.31;50.13;95155.47;4919711;29;20037;-79
2022/01/03 09:00:19;;;;;;;25.95;17.48;;;;;;;12.31;49.95;95142.44;4888045;29;20043;-80
2022/01/03 09:02:45;;;;;;;24.73;16.85;;;;;;;12.34;50.32;95139.38;4900955;29;20449;-79
2022/01/03 09:05:10;;;;;;;27.55;17.63;;;;;;;12.39;49.74;95139.47;4888762;29;20039;-79
2022/01/03 09:07:36;;;;;;;26.50;17.33;;;;;;;12.32;49.57;95146.63;4896252;29;20040;-79
2022/01/03 09:10:03;;;;;;;30.38;17.58;;;;;;;12.23;49.67;95133.19;4895591;29;20463;-80
2022/01/03 09:12:29;;;;;;;27.83;17.02;;;;;;;12.31;50.42;95134.63;4890786;29;20039;-80
2022/01/03 09:17:32;;;;;;;24.80;17.13;;;;;;;12.44;49.59;95136.94;4903166;29;20047;-79
2022/01/03 09:19:58;;;;;;;28.63;17.73;;;;;;;12.47;49.48;95133.88;4917006;29;20032;-78
2022/01/03 09:22:32;;;;;;;37.15;16.50;;;;;;;12.39;49.30;95130.88;4916465;29;20535;-79
2022/01/03 09:30:13;;;;;;;35.50;19.83;;;;;;;12.34;49.99;95110.69;4886450;29;20111;-78
2022/01/03 09:32:39;;;;;;;32.90;20.15;;;;;;;12.46;50.25;95103.59;4915483;29;20036;-77
2022/01/03 09:35:05;;;;;;;37.80;22.40;;;;;;;12.56;49.67;95106.38;4915890;29;21003;-77
2022/01/03 09:37:32;;;;;;;42.40;24.27;;;;;;;12.65;49.74;95108.56;4884466;29;20043;-78
2022/01/03 09:40:00;;;;;;;53.45;28.67;;;;;;;12.59;49.28;95095.47;4916874;29;20090;-78
2022/01/03 09:42:29;;;;;;;40.47;27.05;;;;;;;12.52;49.17;95088.81;4884809;29;20033;-78
2022/01/03 09:44:56;;;;;;;37.90;25.85;;;;;;;12.45;49.75;95082.97;4883714;29;20027;-78
2022/01/03 09:47:21;;;;;;;43.22;25.83;;;;;;;12.51;49.64;95077.59;4899747;29;20028;-78
2022/01/03 09:49:47;;;;;;;49.60;25.98;;;;;;;12.62;48.55;95079.34;4916861;29;20481;-77
2022/01/03 09:52:12;;;;;;;46.97;24.15;;;;;;;12.76;49.14;95085.03;4884793;29;20039;-78
2022/01/03 09:54:38;;;;;;;40.75;24.80;;;;;;;12.92;48.87;95086.81;4884573;29;20028;-77
2022/01/03 09:57:04;;;;;;;50.35;28.27;;;;;;;13.11;48.84;95068.28;4897780;29;20036;-77
2022/01/03 09:59:30;;;;;;;40.15;24.80;;;;;;;13.26;48.88;95065.91;4880751;29;20039;-77
2022/01/03 10:01:56;;;;;;;37.20;25.98;;;;;;;13.37;47.75;95069.44;4882340;29;20040;-77
2022/01/03 10:04:21;;;;;;;50.17;28.23;;;;;;;13.47;47.38;95062.50;4914042;29;20063;-77
2022/01/03 10:06:47;;;;;;;40.78;26.38;;;;;;;13.56;47.59;95049.81;4882173;29;20036;-77
2022/01/03 10:09:12;;;;;;;53.67;28.02;;;;;;;13.63;46.95;95034.72;4866039;29;20032;-77
2022/01/03 10:11:40;;;;;;;33.20;22.42;;;;;;;13.64;46.65;95041.53;4881229;29;20052;-77
2022/01/03 10:14:11;;;;;;;30.80;19.15;;;;;;;13.54;46.84;95044.06;4866140;29;20028;-77
2022/01/03 10:16:37;;;;;;;31.70;19.67;;;;;;;13.52;47.17;95041.69;4897360;29;20075;-77
2022/01/03 10:19:02;;;;;;;31.13;20.33;;;;;;;13.60;46.77;95031.81;4910900;29;20036;-77
2022/01/03 10:21:39;;;;;;;30.55;19.75;;;;;;;13.66;47.16;95015.94;4881863;29;20039;-78
2022/01/03 10:24:05;;;;;;;37.72;20.35;;;;;;;13.75;47.01;95022.31;4894708;29;20063;-77
2022/01/03 10:26:30;;;;;;;31.35;20.33;;;;;;;13.85;46.86;95018.25;4914463;29;20059;-77
2022/01/03 10:29:26;;;;;;;34.25;19.85;;;;;;;13.73;46.65;95016.56;4914089;29;20035;-77
2022/01/03 10:31:56;;;;;;;40.67;20.85;;;;;;;13.75;47.00;95011.88;4899965;29;20048;-80
2022/01/03 10:34:23;;;;;;;33.15;19.13;;;;;;;13.88;46.81;95007.28;4901530;29;20040;-78
2022/01/03 10:36:49;;;;;;;23.65;15.20;;;;;;;13.81;46.29;94997.00;4900289;29;20070;-77
2022/01/03 10:39:22;;;;;;;28.38;15.90;;;;;;;13.73;46.68;94990.41;4887190;29;20096;-80
2022/01/03 10:41:52;;;;;;;26.17;15.05;;;;;;;13.65;47.01;94985.63;4916104;29;20046;-78
2022/01/03 10:44:40;;;;;;;32.90;16.80;;;;;;;13.60;47.29;94980.34;4900252;29;20477;-80
2022/01/03 10:47:09;;;;;;;24.95;16.13;;;;;;;13.70;47.67;94980.47;4898930;29;20039;-78
2022/01/03 10:49:37;;;;;;;24.42;14.68;;;;;;;13.78;47.06;94976.59;4899396;29;20032;-78
2022/01/03 10:52:18;;;;;;;25.27;15.25;;;;;;;13.80;46.76;94972.69;4916623;29;20040;-78
2022/01/03 10:54:49;;;;;;;29.65;15.02;;;;;;;13.82;47.39;94957.56;4899970;29;20051;-78
2022/01/03 10:57:15;;;;;;;34.90;16.55;;;;;;;13.91;46.87;94957.13;4898959;29;20031;-79
2022/01/03 10:59:43;;;;;;;28.33;15.38;;;;;;;13.81;46.97;94953.38;4914808;29;20032;-77
2022/01/03 11:02:11;;;;;;;22.55;16.13;;;;;;;13.76;47.07;94957.78;4883789;29;20020;-78
2022/01/03 11:05:09;;;;;;;;;;;;;;;;;;;;;
2022/01/03 11:13:08;;;;;;;30.02;16.55;;;;;;;13.37;49.43;94946.69;4934463;29;20069;-84
2022/01/03 11:15:34;;;;;;;30.02;17.05;;;;;;;13.33;48.93;94927.28;4932541;29;20123;-83
2022/01/03 11:18:17;;;;;;;32.40;17.45;;;;;;;13.35;49.20;94925.25;4895907;29;20487;-80
2022/01/03 11:20:43;;;;;;;33.97;16.58;;;;;;;13.38;48.94;94922.16;4898928;29;20435;-81
2022/01/03 11:23:11;;;;;;;31.33;17.23;;;;;;;13.42;48.52;94923.22;4933115;29;20107;-81
2022/01/03 11:25:39;;;;;;;33.08;18.67;;;;;;;13.45;48.52;94917.50;4931415;29;20031;-83
2022/01/03 11:28:05;;;;;;;33.97;18.05;;;;;;;13.52;48.65;94910.28;4933504;29;20036;-82
2022/01/03 11:30:30;;;;;;;30.60;18.92;;;;;;;13.57;48.25;94906.91;4922843;29;20023;-83
2022/01/03 11:32:56;;;;;;;50.83;20.98;;;;;;;13.59;48.42;94900.41;4909775;29;20052;-83
2022/01/03 11:35:22;;;;;;;34.33;22.38;;;;;;;13.54;48.53;94896.97;4906568;29;20044;-84
2022/01/03 11:37:47;;;;;;;39.63;22.75;;;;;;;13.55;48.31;94898.53;4911464;29;20117;-81
2022/01/03 11:40:14;;;;;;;42.20;22.33;;;;;;;13.57;48.38;94892.03;4897545;29;20051;-79
2022/01/03 11:42:41;;;;;;;38.38;23.17;;;;;;;13.61;48.23;94893.09;4899106;29;20043;-81
2022/01/03 11:45:07;;;;;;;47.13;24.77;;;;;;;13.65;48.01;94888.94;4912900;29;20066;-82
2022/01/03 11:47:32;;;;;;;42.30;24.38;;;;;;;13.74;48.23;94887.47;4914512;29;20484;-82